Time;durP1;ratioP1;P1;durP2;ratioP2;P2;SDS_P1;SDS_P2;PMS_P1;PMS_P2;Temp;Humidity;BMP_temperature;BMP_pressure;BME280_temperature;BME280_humidity;BME280_pressure;Samples;Min_cycle;Max_cycle;Signal;HPM_P1;HPM_P2
2022/06/03 00:00:19;;;;;;;2.03;1.70;;;;;;;13.28;96.30;95943.03;5029745;28;24993;-71
2022/06/03 00:03:16;;;;;;;2.35;1.45;;;;;;;13.11;97.47;95940.75;5102817;28;24544;-71
2022/06/03 00:06:11;;;;;;;4.85;1.80;;;;;;;13.02;98.31;95937.88;5112295;28;24429;-71
2022/06/03 00:09:12;;;;;;;4.88;1.70;;;;;;;12.86;100.00;95928.63;5112463;28;24417;-71
2022/06/03 00:11:57;;;;;;;1.77;1.67;;;;;;;12.87;100.00;95932.88;5112135;28;24418;-71
2022/06/03 00:14:41;;;;;;;3.92;1.95;;;;;;;12.94;100.00;95931.53;5112197;28;24429;-71
2022/06/03 00:17:25;;;;;;;2.95;1.85;;;;;;;12.93;100.00;95928.09;5112282;28;24771;-71
2022/06/03 00:20:03;;;;;;;3.40;1.70;;;;;;;13.12;100.00;95926.81;5112369;28;24424;-71
2022/06/03 00:22:56;;;;;;;2.15;1.80;;;;;;;13.15;99.18;95919.63;5112390;28;24451;-71
2022/06/03 00:25:38;;;;;;;1.98;1.75;;;;;;;13.10;99.11;95928.72;5111796;28;24413;-71
2022/06/03 00:28:28;;;;;;;3.28;1.65;;;;;;;12.99;100.00;95927.69;5112370;28;24420;-71
2022/06/03 00:31:17;;;;;;;1.95;1.60;;;;;;;12.98;100.00;95926.03;5112023;28;24449;-71
2022/06/03 00:34:01;;;;;;;3.92;1.67;;;;;;;13.11;99.38;95927.75;5111917;27;24782;-71
2022/06/03 00:37:01;;;;;;;1.42;1.30;;;;;;;12.96;100.00;95932.25;5112024;28;24417;-71
2022/06/03 00:39:42;;;;;;;3.70;1.77;;;;;;;12.94;100.00;95936.72;5111617;28;24449;-71
2022/06/03 00:42:29;;;;;;;2.63;1.90;;;;;;;12.91;100.00;95931.75;5111719;28;25004;-71
2022/06/03 00:45:20;;;;;;;2.03;1.58;;;;;;;12.90;100.00;95936.09;5111607;28;24436;-71
2022/06/03 00:47:58;;;;;;;1.77;1.50;;;;;;;12.92;100.00;95936.00;5112289;28;24417;-71
2022/06/03 00:50:50;;;;;;;2.92;1.60;;;;;;;12.99;100.00;95930.28;5111441;28;24544;-71
2022/06/03 00:53:32;;;;;;;1.92;1.70;;;;;;;13.08;100.00;95928.78;5111684;28;24426;-71
2022/06/03 00:56:34;;;;;;;1.60;1.50;;;;;;;13.10;100.00;95929.53;5111370;28;24410;-71
2022/06/03 00:59:15;;;;;;;2.00;1.67;;;;;;;13.13;100.00;95931.09;5111766;28;24460;-71
2022/06/03 01:01:54;;;;;;;1.98;1.60;;;;;;;13.18;100.00;95936.78;5111626;28;24428;-72
2022/06/03 01:04:36;;;;;;;2.63;1.63;;;;;;;13.23;100.00;95930.34;5111253;28;25003;-72
2022/06/03 01:07:17;;;;;;;3.70;2.10;;;;;;;13.24;100.00;95926.00;5111278;28;24462;-71
2022/06/03 01:10:09;;;;;;;2.10;1.65;;;;;;;13.17;100.00;95941.16;5111391;28;24495;-71
2022/06/03 01:13:02;;;;;;;2.65;1.73;;;;;;;13.13;100.00;95937.13;5111443;28;24463;-71
2022/06/03 01:15:38;;;;;;;2.13;1.43;;;;;;;13.19;100.00;95934.06;5110934;28;24869;-71
2022/06/03 01:18:17;;;;;;;2.13;1.63;;;;;;;13.18;100.00;95929.00;5111450;28;24429;-71
2022/06/03 01:20:56;;;;;;;1.95;1.48;;;;;;;13.25;100.00;95930.25;5111351;28;24454;-71
2022/06/03 01:23:48;;;;;;;2.60;1.77;;;;;;;13.15;100.00;95931.81;5110879;28;24421;-71
2022/06/03 01:26:33;;;;;;;2.88;1.67;;;;;;;13.18;98.24;95927.22;5111053;28;24431;-71
2022/06/03 01:29:29;;;;;;;2.67;1.52;;;;;;;12.98;94.08;95923.44;5111257;28;24413;-71
2022/06/03 01:32:40;;;;;;;1.80;1.60;;;;;;;12.65;97.98;95928.38;5110916;28;24985;-71
2022/06/03 01:35:47;;;;;;;2.40;1.90;;;;;;;12.51;100.00;95932.72;5046285;28;24519;-71
2022/06/03 01:38:27;;;;;;;2.50;1.60;;;;;;;12.57;100.00;95931.50;5088057;28;24429;-71
2022/06/03 01:41:17;;;;;;;2.38;1.80;;;;;;;12.44;100.00;95928.03;5111263;28;24824;-71
2022/06/03 01:44:06;;;;;;;2.20;1.60;;;;;;;12.55;100.00;95928.16;5110926;28;24432;-71
2022/06/03 01:46:35;;;;;;;2.33;1.60;;;;;;;12.53;100.00;95928.25;5110756;28;24421;-71
2022/06/03 01:49:38;;;;;;;3.15;2.03;;;;;;;12.55;100.00;95935.94;5110981;28;24474;-71
2022/06/03 01:52:38;;;;;;;2.03;1.80;;;;;;;12.54;100.00;95927.31;5110887;28;24414;-71
2022/06/03 01:55:45;;;;;;;3.22;2.03;;;;;;;12.32;100.00;95925.34;5110413;28;24528;-71
2022/06/03 01:58:52;;;;;;;2.85;1.98;;;;;;;12.30;100.00;95936.75;5110923;28;24486;-71
2022/06/03 02:01:53;;;;;;;2.70;1.98;;;;;;;12.17;100.00;95928.97;5110525;28;24426;-71
2022/06/03 02:04:38;;;;;;;2.85;2.20;;;;;;;12.31;100.00;95915.03;5110362;28;24521;-71
2022/06/03 02:07:37;;;;;;;3.85;2.30;;;;;;;12.34;100.00;95910.47;5110669;28;24615;-71
2022/06/03 02:10:46;;;;;;;3.90;2.45;;;;;;;12.30;100.00;95914.22;5110709;28;24498;-71
2022/06/03 02:13:58;;;;;;;2.90;2.00;;;;;;;12.19;100.00;95910.69;5027735;28;24431;-71
2022/06/03 02:17:12;;;;;;;6.32;2.17;;;;;;;12.06;100.00;95910.69;5027545;28;24420;-71
2022/06/03 02:20:21;;;;;;;2.35;1.90;;;;;;;12.15;100.00;95915.25;5047632;28;24956;-71
2022/06/03 02:23:21;;;;;;;2.42;1.95;;;;;;;12.31;100.00;95902.91;5100190;28;24445;-71
2022/06/03 02:26:09;;;;;;;4.68;2.10;;;;;;;12.20;100.00;95905.41;5110292;28;24421;-71
2022/06/03 02:31:52;;;;;;;4.90;2.20;;;;;;;11.93;100.00;95904.63;5109921;28;24445;-71
2022/06/03 02:35:00;;;;;;;4.43;2.05;;;;;;;12.29;100.00;95902.16;5110089;28;24478;-71
2022/06/03 02:37:46;;;;;;;3.60;2.30;;;;;;;12.46;100.00;95906.22;5114518;27;24791;-71
2022/06/03 02:40:32;;;;;;;3.17;2.20;;;;;;;12.09;100.00;95902.69;5114763;28;24506;-71
2022/06/03 02:43:31;;;;;;;7.40;2.13;;;;;;;12.00;100.00;95911.06;5114121;28;24474;-71
2022/06/03 02:46:31;;;;;;;5.47;2.10;;;;;;;12.15;100.00;95904.84;5113665;28;24422;-71
2022/06/03 02:49:23;;;;;;;2.55;2.10;;;;;;;12.20;100.00;95902.81;5113890;28;24954;-71
2022/06/03 02:52:18;;;;;;;4.78;2.30;;;;;;;12.18;100.00;95907.25;5114131;28;25005;-72
2022/06/03 02:55:20;;;;;;;4.97;2.00;;;;;;;11.92;100.00;95902.97;5113776;28;24447;-73
2022/06/03 02:58:11;;;;;;;3.10;2.23;;;;;;;11.96;100.00;95904.41;5114105;28;24409;-74
2022/06/03 03:00:49;;;;;;;3.25;2.10;;;;;;;12.00;100.00;95901.50;5113995;28;24836;-73
2022/06/03 03:03:39;;;;;;;4.00;2.15;;;;;;;12.00;100.00;95900.69;5113813;28;24798;-73
2022/06/03 03:06:42;;;;;;;2.95;2.00;;;;;;;12.15;100.00;95904.03;5113507;28;24529;-73
2022/06/03 03:09:24;;;;;;;2.70;1.80;;;;;;;12.24;100.00;95896.47;5113342;28;24421;-73
2022/06/03 03:12:35;;;;;;;10.93;2.13;;;;;;;12.29;100.00;95901.34;5112646;28;24841;-73
2022/06/03 03:15:18;;;;;;;3.05;2.00;;;;;;;12.15;100.00;95881.50;5111516;28;24503;-73
2022/06/03 03:18:26;;;;;;;3.70;2.20;;;;;;;11.98;100.00;95887.00;5113695;28;24922;-73
2022/06/03 03:21:22;;;;;;;2.60;2.40;;;;;;;11.99;100.00;95883.47;5074348;28;25010;-73
2022/06/03 03:24:11;;;;;;;2.88;2.03;;;;;;;12.16;100.00;95890.09;5113471;28;24417;-73
2022/06/03 03:26:50;;;;;;;2.28;1.67;;;;;;;12.10;100.00;95893.97;5113684;28;24421;-73
2022/06/03 03:29:43;;;;;;;7.85;2.00;;;;;;;11.96;100.00;95894.88;5113395;28;24824;-73
2022/06/03 03:32:19;;;;;;;2.17;1.88;;;;;;;11.92;100.00;95892.59;5113427;28;24421;-73
2022/06/03 03:35:13;;;;;;;2.70;1.92;;;;;;;11.85;100.00;95897.34;5112891;28;25159;-73
2022/06/03 03:38:15;;;;;;;2.92;2.17;;;;;;;11.98;100.00;95887.81;5113382;28;24414;-73
2022/06/03 03:41:18;;;;;;;4.78;2.00;;;;;;;11.92;100.00;95888.22;5113235;28;24416;-73
2022/06/03 03:44:10;;;;;;;5.93;1.97;;;;;;;11.99;100.00;95884.28;5112920;28;25041;-73
2022/06/03 03:47:25;;;;;;;4.00;2.10;;;;;;;12.14;100.00;95892.81;5112925;28;24416;-73
2022/06/03 03:50:21;;;;;;;2.75;1.80;;;;;;;11.95;100.00;95894.97;5099448;22;24467;-74
2022/06/03 03:53:29;;;;;;;2.77;1.87;;;;;;;11.73;100.00;95892.94;5072283;28;24943;-74
2022/06/03 03:56:22;;;;;;;4.13;2.15;;;;;;;11.71;100.00;95892.19;5072064;28;24966;-74
2022/06/03 03:59:25;;;;;;;2.03;1.83;;;;;;;11.77;100.00;95891.78;5058720;28;24451;-74
2022/06/03 04:02:23;;;;;;;2.38;1.85;;;;;;;11.82;100.00;95898.34;5072457;28;24803;-73
2022/06/03 04:05:14;;;;;;;2.63;2.10;;;;;;;11.93;100.00;95887.28;5072585;28;24442;-73
2022/06/03 04:08:11;;;;;;;2.58;1.90;;;;;;;11.98;100.00;95892.19;5072687;28;24998;-73
2022/06/03 04:11:10;;;;;;;3.42;2.08;;;;;;;11.97;100.00;95893.94;5072749;28;24454;-73
2022/06/03 04:14:05;;;;;;;4.60;1.83;;;;;;;12.06;100.00;95885.53;5073070;28;24427;-73
2022/06/03 04:17:05;;;;;;;6.65;2.30;;;;;;;12.18;100.00;95889.06;5072531;28;24453;-73
2022/06/03 04:20:01;;;;;;;2.10;1.90;;;;;;;12.11;100.00;95886.06;5072661;28;24959;-74
2022/06/03 04:23:07;;;;;;;2.42;1.73;;;;;;;12.13;100.00;95892.94;5072452;28;24422;-73
2022/06/03 04:26:06;;;;;;;4.10;2.03;;;;;;;12.19;100.00;95885.53;5072495;28;24418;-73
2022/06/03 04:28:50;;;;;;;2.15;1.70;;;;;;;12.32;100.00;95883.78;5072518;28;24427;-73
2022/06/03 04:31:52;;;;;;;3.33;2.10;;;;;;;12.23;100.00;95886.16;5072494;28;24500;-73
2022/06/03 04:34:57;;;;;;;3.30;2.10;;;;;;;12.14;100.00;95890.22;5071822;28;24839;-73
2022/06/03 04:38:12;;;;;;;1.95;1.70;;;;;;;12.05;100.00;95883.88;5071393;28;24780;-74
2022/06/03 04:41:18;;;;;;;6.18;2.10;;;;;;;12.21;100.00;95886.28;5071417;28;24776;-74
2022/06/03 04:44:22;;;;;;;7.78;2.30;;;;;;;12.24;100.00;95880.88;5071072;28;24959;-74
2022/06/03 04:47:28;;;;;;;2.65;2.25;;;;;;;12.33;100.00;95888.03;5071083;28;24484;-73
2022/06/03 04:50:29;;;;;;;4.55;2.25;;;;;;;12.50;100.00;95880.88;5069190;28;24832;-72
2022/06/03 04:53:46;;;;;;;2.47;2.10;;;;;;;12.64;100.00;95885.94;5070127;28;25013;-72
2022/06/03 04:56:43;;;;;;;2.40;2.13;;;;;;;12.74;100.00;95888.72;5070390;28;24415;-72
2022/06/03 04:59:42;;;;;;;2.83;2.17;;;;;;;12.90;100.00;95891.91;5015730;28;24427;-73
2022/06/03 05:02:51;;;;;;;2.75;2.20;;;;;;;12.80;100.00;95894.34;5070882;28;24415;-73
2022/06/03 05:05:53;;;;;;;5.30;2.10;;;;;;;12.87;100.00;95889.56;5058138;28;24530;-72
2022/06/03 05:12:19;;;;;;;5.70;2.43;;;;;;;13.18;100.00;95882.19;5108548;27;20716;-73
2022/06/03 05:15:22;;;;;;;4.05;2.42;;;;;;;13.43;100.00;95876.91;5107962;28;24525;-72
2022/06/03 05:18:26;;;;;;;3.67;2.53;;;;;;;13.54;100.00;95876.97;5108325;28;24421;-72
2022/06/03 05:21:32;;;;;;;4.25;2.75;;;;;;;13.59;100.00;95879.22;5082520;28;24442;-73
2022/06/03 05:24:20;;;;;;;3.78;2.78;;;;;;;13.77;100.00;95882.25;5088539;28;24522;-73
2022/06/03 05:27:11;;;;;;;4.85;2.80;;;;;;;13.52;100.00;95883.22;5087792;28;24768;-73
2022/06/03 05:30:19;;;;;;;2.60;2.40;;;;;;;13.70;100.00;95887.06;5087090;28;24486;-73
2022/06/03 05:33:24;;;;;;;4.72;3.20;;;;;;;13.89;100.00;95878.75;5087776;28;24426;-73
2022/06/03 05:36:32;;;;;;;3.10;2.33;;;;;;;14.13;100.00;95878.69;5087902;28;24417;-75
2022/06/03 05:39:43;;;;;;;6.57;2.55;;;;;;;14.26;100.00;95884.63;5088521;28;24476;-75
2022/06/03 05:42:27;;;;;;;4.25;2.50;;;;;;;14.56;100.00;95880.66;5087854;28;24426;-75
2022/06/03 05:45:26;;;;;;;3.53;2.47;;;;;;;14.76;100.00;95876.53;5088008;28;24422;-74
2022/06/03 05:47:56;;;;;;;3.05;2.33;;;;;;;14.98;100.00;95879.13;5087474;28;24421;-75
2022/06/03 05:50:34;;;;;;;5.47;2.75;;;;;;;15.14;100.00;95875.28;5087874;28;24550;-74
2022/06/03 05:53:10;;;;;;;3.30;2.67;;;;;;;15.32;100.00;95868.63;5088467;28;24426;-75
2022/06/03 05:55:51;;;;;;;5.03;3.22;;;;;;;15.89;100.00;95867.47;5087543;28;24998;-75
2022/06/03 05:58:32;;;;;;;4.85;3.17;;;;;;;16.13;100.00;95864.63;5087784;28;24784;-75
2022/06/03 06:01:20;;;;;;;3.77;2.90;;;;;;;16.45;100.00;95866.28;5087015;28;24483;-76
2022/06/03 06:03:52;;;;;;;5.10;3.00;;;;;;;16.15;93.28;95873.13;5087891;28;24426;-74
2022/06/03 06:06:31;;;;;;;3.53;2.90;;;;;;;16.01;93.89;95876.06;5088065;28;24422;-77
2022/06/03 06:09:18;;;;;;;3.35;2.67;;;;;;;16.13;92.67;95876.81;5088189;28;24441;-78
2022/06/03 06:12:03;;;;;;;6.20;2.80;;;;;;;16.00;92.89;95871.81;5086459;28;25025;-79
2022/06/03 06:14:40;;;;;;;4.32;3.00;;;;;;;15.98;94.35;95868.47;5090235;28;24422;-79
2022/06/03 06:17:26;;;;;;;7.05;2.92;;;;;;;16.16;92.72;95866.94;5091110;28;24418;-77
2022/06/03 06:19:57;;;;;;;4.05;3.08;;;;;;;16.40;92.37;95877.16;5091193;28;24422;-79
2022/06/03 06:22:29;;;;;;;4.17;2.50;;;;;;;16.88;92.93;95878.34;5080295;28;24434;-79
2022/06/03 06:25:02;;;;;;;2.67;2.45;;;;;;;16.95;89.99;95882.09;5076449;28;24421;-79
2022/06/03 06:28:02;;;;;;;4.80;2.90;;;;;;;17.17;87.48;95874.03;5074517;28;24898;-77
2022/06/03 06:31:11;;;;;;;6.70;2.77;;;;;;;17.20;89.55;95874.72;5072239;28;24847;-79
2022/06/03 06:34:16;;;;;;;3.00;2.70;;;;;;;17.42;91.06;95869.25;5074582;28;24823;-76
2022/06/03 06:36:58;;;;;;;5.10;2.83;;;;;;;17.78;88.35;95859.94;5073206;28;24423;-76
2022/06/03 06:40:02;;;;;;;4.70;2.80;;;;;;;17.96;86.98;95860.06;5073189;28;24421;-75
2022/06/03 06:42:51;;;;;;;4.18;2.78;;;;;;;18.11;86.90;95855.22;5038065;28;24443;-76
2022/06/03 06:45:29;;;;;;;3.60;2.70;;;;;;;18.45;86.37;95849.47;5052049;28;24506;-75
2022/06/03 06:48:07;;;;;;;3.10;2.73;;;;;;;18.79;84.01;95855.03;5052616;28;24458;-75
2022/06/03 06:50:42;;;;;;;3.13;2.42;;;;;;;19.07;83.62;95846.22;5052990;28;24442;-77
2022/06/03 06:53:12;;;;;;;2.67;2.05;;;;;;;19.30;82.69;95840.53;5052788;28;24419;-77
2022/06/03 06:55:51;;;;;;;2.63;2.40;;;;;;;19.79;79.79;95849.75;5051887;28;24434;-77
2022/06/03 06:58:33;;;;;;;4.38;2.63;;;;;;;20.03;77.49;95848.31;5053138;28;24953;-78
2022/06/03 07:01:04;;;;;;;5.80;2.63;;;;;;;20.27;77.61;95851.09;5071245;28;24434;-75
2022/06/03 07:03:49;;;;;;;4.20;2.67;;;;;;;20.01;78.94;95845.81;5072157;28;24986;-75
2022/06/03 07:06:21;;;;;;;2.92;2.33;;;;;;;20.14;77.58;95855.13;5071781;28;24426;-75
2022/06/03 07:08:52;;;;;;;3.03;2.42;;;;;;;20.19;77.85;95847.59;5072013;28;24434;-76
2022/06/03 07:11:26;;;;;;;5.25;2.55;;;;;;;20.17;79.29;95847.75;5090080;28;24987;-76
2022/06/03 07:13:56;;;;;;;4.05;2.75;;;;;;;20.25;76.36;95842.56;5092364;28;24410;-75
2022/06/03 07:22:06;;;;;;;4.80;2.33;;;;;;;20.23;77.27;95848.94;5092091;28;24405;-75
2022/06/03 07:24:41;;;;;;;2.88;2.20;;;;;;;20.18;79.51;95849.41;5091634;28;24422;-77
2022/06/03 07:27:16;;;;;;;5.05;2.40;;;;;;;20.32;78.94;95853.28;5092072;28;24433;-76
2022/06/03 07:29:49;;;;;;;5.45;2.97;;;;;;;20.58;75.42;95853.31;5091662;28;24430;-76
2022/06/03 07:32:21;;;;;;;4.85;2.58;;;;;;;20.59;75.68;95844.44;5092657;28;24973;-77
2022/06/03 07:34:53;;;;;;;3.97;2.20;;;;;;;20.56;76.00;95836.03;5090868;28;24418;-76
2022/06/03 07:37:25;;;;;;;4.28;2.67;;;;;;;20.53;74.62;95837.16;5092758;28;25025;-76
2022/06/03 07:39:55;;;;;;;2.20;1.80;;;;;;;20.99;74.50;95832.44;5092451;28;24434;-76
2022/06/03 07:42:30;;;;;;;4.60;2.17;;;;;;;21.60;69.39;95825.22;5092819;28;24459;-76
2022/06/03 07:45:11;;;;;;;2.40;2.10;;;;;;;21.58;67.30;95814.84;5091508;28;24429;-77
2022/06/03 07:47:40;;;;;;;3.60;2.22;;;;;;;21.90;67.27;95810.56;5092313;28;24437;-76
2022/06/03 07:50:12;;;;;;;2.88;2.30;;;;;;;22.38;70.54;95800.97;5091867;28;24453;-76
2022/06/03 07:52:46;;;;;;;3.63;2.10;;;;;;;22.39;64.99;95803.44;5091777;28;24461;-76
2022/06/03 07:55:17;;;;;;;4.47;2.42;;;;;;;22.28;64.48;95797.69;5091174;28;24464;-76
2022/06/03 07:57:50;;;;;;;4.82;2.25;;;;;;;22.20;65.08;95791.44;5091396;28;24939;-76
2022/06/03 08:00:19;;;;;;;5.55;2.50;;;;;;;22.16;64.98;95787.47;5091722;28;24775;-76
2022/06/03 08:03:00;;;;;;;5.30;2.10;;;;;;;22.42;64.86;95778.53;5091348;28;24418;-76
2022/06/03 08:05:26;;;;;;;7.63;2.37;;;;;;;22.49;64.22;95781.31;5090601;28;24429;-75
2022/06/03 08:10:58;;;;;;;5.88;2.13;;;;;;;22.66;62.68;95785.56;5090892;28;24583;-76
2022/06/03 08:13:24;;;;;;;4.13;2.03;;;;;;;22.98;61.69;95783.78;5090985;28;24433;-76
2022/06/03 08:15:58;;;;;;;2.53;1.70;;;;;;;23.25;62.68;95772.75;5090520;28;24471;-78
2022/06/03 08:18:30;;;;;;;3.25;2.03;;;;;;;23.21;59.21;95767.97;5090796;28;24767;-76
2022/06/03 08:21:00;;;;;;;3.80;2.03;;;;;;;23.58;62.36;95772.50;5091055;28;24411;-74
2022/06/03 08:23:30;;;;;;;3.15;2.03;;;;;;;23.90;58.72;95771.47;5090808;28;24997;-75
2022/06/03 08:25:59;;;;;;;2.65;1.90;;;;;;;23.58;58.72;95769.88;5090111;28;24521;-76
2022/06/03 08:28:28;;;;;;;3.88;2.05;;;;;;;24.28;60.11;95769.59;5090657;28;24958;-74
2022/06/03 08:30:57;;;;;;;2.80;2.07;;;;;;;24.61;60.75;95761.34;5091062;28;24527;-78
2022/06/03 08:33:30;;;;;;;4.05;1.92;;;;;;;24.42;57.68;95756.59;5091296;28;24476;-75
2022/06/03 08:35:57;;;;;;;5.28;2.15;;;;;;;24.20;58.47;95750.34;5091261;28;24827;-76
2022/06/03 08:38:28;;;;;;;6.40;2.05;;;;;;;23.70;59.07;95739.41;5091568;28;24441;-77
2022/06/03 08:41:09;;;;;;;3.55;2.20;;;;;;;24.10;59.67;95742.66;5091415;28;24431;-77
2022/06/03 08:44:03;;;;;;;4.95;1.92;;;;;;;24.49;62.64;95744.28;5091212;28;24441;-74
2022/06/03 08:46:36;;;;;;;3.20;2.00;;;;;;;24.47;59.26;95749.72;5091328;28;24421;-77
2022/06/03 08:49:08;;;;;;;2.37;2.00;;;;;;;24.77;60.79;95739.97;5091537;28;25179;-77
2022/06/03 08:51:41;;;;;;;3.50;2.10;;;;;;;25.00;63.86;95741.66;5090782;28;24978;-74
2022/06/03 08:54:19;;;;;;;2.77;2.27;;;;;;;25.19;65.43;95727.81;5090607;28;24499;-74
2022/06/03 08:56:49;;;;;;;4.57;2.00;;;;;;;25.03;60.20;95731.50;5090304;28;24471;-75
2022/06/03 08:59:23;;;;;;;4.22;2.20;;;;;;;24.54;60.23;95726.00;5090301;28;24434;-75
2022/06/03 09:01:54;;;;;;;3.30;1.98;;;;;;;25.02;60.97;95715.78;5090666;28;24936;-74
2022/06/03 09:04:30;;;;;;;2.78;1.92;;;;;;;25.16;57.90;95709.66;5090325;28;24810;-74
2022/06/03 09:07:04;;;;;;;4.10;2.20;;;;;;;25.32;58.86;95720.00;5090612;28;24430;-74
2022/06/03 09:09:39;;;;;;;4.32;1.83;;;;;;;25.30;55.29;95721.22;5090446;28;25025;-74
2022/06/03 09:12:13;;;;;;;2.20;1.80;;;;;;;25.69;54.05;95727.88;5090350;28;24445;-74
2022/06/03 09:14:42;;;;;;;2.03;1.83;;;;;;;25.87;55.50;95727.44;5090047;28;24936;-75
2022/06/03 09:17:33;;;;;;;3.00;1.83;;;;;;;26.15;53.72;95727.44;5090589;28;24414;-74
2022/06/03 09:20:05;;;;;;;2.88;1.92;;;;;;;26.27;51.21;95717.91;5086825;28;24522;-75
2022/06/03 09:22:33;;;;;;;6.25;1.90;;;;;;;26.45;53.48;95720.88;5082201;28;24672;-74
2022/06/03 09:25:02;;;;;;;3.47;2.03;;;;;;;26.43;50.80;95714.94;5073271;28;24462;-75
2022/06/03 09:27:31;;;;;;;2.63;1.73;;;;;;;26.81;50.87;95719.03;5082674;28;24435;-75
2022/06/03 09:30:02;;;;;;;2.15;1.80;;;;;;;26.90;52.23;95713.34;5089703;28;24438;-76
2022/06/03 09:32:29;;;;;;;4.15;2.13;;;;;;;27.35;55.61;95727.00;5090247;28;24485;-76
2022/06/03 09:35:01;;;;;;;2.47;1.60;;;;;;;27.46;47.28;95726.38;5089991;28;24822;-76
2022/06/03 09:37:32;;;;;;;3.10;1.60;;;;;;;27.42;52.48;95729.66;5090099;28;24521;-76
2022/06/03 09:40:00;;;;;;;4.27;1.70;;;;;;;27.65;49.08;95731.94;5090197;28;24969;-76
2022/06/03 09:42:28;;;;;;;3.75;1.60;;;;;;;27.60;53.86;95732.56;5090339;28;24463;-76
2022/06/03 09:44:56;;;;;;;3.30;1.50;;;;;;;27.48;52.41;95739.50;5089988;28;24425;-76
2022/06/03 09:47:24;;;;;;;1.77;1.52;;;;;;;27.18;48.95;95729.22;5090208;28;24536;-76
2022/06/03 09:49:53;;;;;;;3.35;1.65;;;;;;;27.01;51.40;95734.03;5079143;28;24438;-76
2022/06/03 09:52:23;;;;;;;2.33;1.50;;;;;;;26.92;49.75;95729.06;5069777;28;24983;-75
2022/06/03 09:54:52;;;;;;;2.42;1.65;;;;;;;26.93;48.74;95733.41;5069611;28;24419;-76
2022/06/03 09:57:22;;;;;;;2.80;1.40;;;;;;;26.59;47.68;95743.06;5071517;28;24426;-76
2022/06/03 09:59:57;;;;;;;1.92;1.48;;;;;;;26.54;48.41;95740.97;5073597;28;24419;-76
2022/06/03 10:02:25;;;;;;;4.82;1.70;;;;;;;26.49;50.80;95734.63;5073533;28;24422;-76
2022/06/03 10:04:52;;;;;;;2.40;1.47;;;;;;;26.31;50.67;95738.56;5073469;28;24421;-76
2022/06/03 10:07:18;;;;;;;3.65;1.40;;;;;;;26.06;52.35;95742.69;5073650;28;24476;-76
2022/06/03 10:12:52;;;;;;;3.05;1.65;;;;;;;26.02;56.88;95738.78;5073538;28;24500;-76
2022/06/03 10:15:41;;;;;;;3.50;2.20;;;;;;;26.02;54.16;95736.94;5073355;28;24415;-76
2022/06/03 10:18:29;;;;;;;3.78;1.77;;;;;;;25.83;53.21;95741.09;5073442;28;24430;-77
2022/06/03 10:20:58;;;;;;;2.83;1.67;;;;;;;25.49;50.64;95744.44;5073135;28;24986;-76
2022/06/03 10:23:29;;;;;;;4.18;1.83;;;;;;;25.76;53.32;95740.19;5073087;28;24530;-75
2022/06/03 10:26:01;;;;;;;4.35;1.58;;;;;;;25.97;51.99;95741.19;5078358;28;24434;-76
2022/06/03 10:28:34;;;;;;;3.10;1.85;;;;;;;26.42;55.87;95739.03;5085875;28;24466;-75
2022/06/03 10:31:05;;;;;;;5.38;2.22;;;;;;;26.77;53.67;95738.03;5082047;28;24426;-76
2022/06/03 10:33:32;;;;;;;2.35;1.75;;;;;;;26.78;51.53;95742.31;5085111;28;24484;-76
2022/06/03 10:36:00;;;;;;;3.60;1.87;;;;;;;26.29;49.43;95732.66;5072543;28;24434;-76
2022/06/03 10:38:29;;;;;;;3.28;1.90;;;;;;;26.47;52.20;95734.81;5073099;28;24430;-76
2022/06/03 10:40:56;;;;;;;2.77;1.77;;;;;;;26.01;50.67;95729.19;5072972;28;24491;-76
2022/06/03 10:43:25;;;;;;;2.05;1.80;;;;;;;26.39;54.01;95724.31;5082009;28;24483;-76
2022/06/03 10:46:08;;;;;;;2.97;2.00;;;;;;;26.37;51.67;95730.84;5092772;28;24417;-75
2022/06/03 10:48:35;;;;;;;2.78;1.70;;;;;;;26.29;50.38;95732.66;5093391;28;24432;-76
2022/06/03 10:51:14;;;;;;;4.97;1.75;;;;;;;25.92;53.00;95746.25;5091206;28;24442;-73
2022/06/03 11:01:59;;;;;;;2.45;1.60;;;;;;;24.78;56.81;95794.56;5072895;28;24450;-75
2022/06/03 11:04:30;;;;;;;2.47;1.77;;;;;;;24.75;55.17;95799.41;5072200;28;24519;-75
2022/06/03 11:06:59;;;;;;;2.33;1.80;;;;;;;24.53;54.66;95801.16;5072095;28;24992;-75
2022/06/03 11:09:26;;;;;;;9.20;2.20;;;;;;;24.32;55.40;95796.53;5076988;28;24509;-75
2022/06/03 11:11:58;;;;;;;3.10;1.70;;;;;;;24.17;57.88;95791.22;5089914;28;24460;-75
2022/06/03 11:14:36;;;;;;;2.70;1.70;;;;;;;24.04;60.65;95785.72;5072141;28;24421;-75
2022/06/03 11:17:09;;;;;;;4.30;2.03;;;;;;;23.84;62.77;95788.03;5072321;28;24476;-75
2022/06/03 11:19:38;;;;;;;6.72;2.60;;;;;;;23.67;68.44;95796.09;5071894;28;24423;-75
2022/06/03 11:24:32;;;;;;;3.95;2.40;;;;;;;23.29;78.70;95786.44;5070771;28;24478;-72
2022/06/03 11:26:59;;;;;;;8.60;2.70;;;;;;;22.97;81.71;95798.81;5060655;28;24437;-72
2022/06/03 11:29:33;;;;;;;6.20;2.38;;;;;;;22.67;83.92;95797.75;5052052;28;24415;-72
2022/06/03 11:32:03;;;;;;;8.00;2.80;;;;;;;22.56;92.72;95769.09;5051515;28;25006;-72
2022/06/03 11:34:37;;;;;;;11.30;4.13;;;;;;;22.43;94.78;95748.50;5051857;28;24422;-72
2022/06/03 11:37:11;;;;;;;10.63;3.63;;;;;;;21.37;100.00;95738.91;5051943;28;24470;-72
2022/06/03 11:39:42;;;;;;;6.30;2.85;;;;;;;20.88;100.00;95725.63;5051888;28;24458;-74
2022/06/03 11:42:16;;;;;;;5.32;2.83;;;;;;;21.15;100.00;95721.06;5051734;28;24419;-75
2022/06/03 11:44:48;;;;;;;3.42;2.65;;;;;;;21.51;100.00;95726.88;5051598;28;24419;-73
2022/06/03 11:47:17;;;;;;;3.27;2.97;;;;;;;21.74;100.00;95732.31;5051769;28;24547;-74
2022/06/03 11:49:46;;;;;;;6.90;3.47;;;;;;;21.51;100.00;95750.59;5051729;28;24430;-74
2022/06/03 11:52:13;;;;;;;5.07;3.22;;;;;;;21.79;100.00;95744.97;5051333;28;24470;-74
2022/06/03 11:54:41;;;;;;;6.43;3.65;;;;;;;21.91;100.00;95735.72;5051183;28;24944;-74
2022/06/03 11:57:07;;;;;;;6.63;3.83;;;;;;;21.82;100.00;95729.66;5051151;28;24416;-74
2022/06/03 11:59:38;;;;;;;5.73;3.50;;;;;;;21.95;100.00;95724.69;5051563;28;24519;-75
2022/06/03 12:02:14;;;;;;;5.25;3.25;;;;;;;21.82;100.00;95740.19;5051947;28;24415;-73
2022/06/03 12:04:49;;;;;;;6.18;3.60;;;;;;;21.72;100.00;95747.44;5051683;28;24983;-73
2022/06/03 12:07:30;;;;;;;9.83;4.30;;;;;;;21.51;100.00;95745.34;5052314;28;24774;-73
2022/06/03 12:10:03;;;;;;;9.05;3.95;;;;;;;21.40;100.00;95743.84;5052390;28;24435;-75
2022/06/03 12:15:45;;;;;;;5.30;3.70;;;;;;;21.21;100.00;95738.81;5052012;28;24505;-75
2022/06/03 12:18:52;;;;;;;5.80;3.87;;;;;;;21.50;100.00;95741.03;5044093;28;24967;-77
2022/06/03 12:21:52;;;;;;;5.60;3.70;;;;;;;21.73;100.00;95742.03;5051526;28;24476;-73
2022/06/03 12:24:40;;;;;;;5.68;3.97;;;;;;;21.81;100.00;95750.94;5051489;28;24438;-74
2022/06/03 12:27:15;;;;;;;6.43;4.22;;;;;;;21.64;100.00;95742.19;5051930;28;24450;-74
2022/06/03 12:29:47;;;;;;;6.32;4.30;;;;;;;21.82;100.00;95745.47;5051788;28;24438;-74
2022/06/03 12:32:22;;;;;;;6.10;4.35;;;;;;;21.79;100.00;95745.81;5051245;28;24446;-76
2022/06/03 12:34:49;;;;;;;5.40;3.92;;;;;;;21.83;100.00;95751.56;5051492;28;24765;-74
2022/06/03 12:37:25;;;;;;;8.15;5.07;;;;;;;21.67;100.00;95755.84;5051412;28;24480;-76
2022/06/03 12:40:05;;;;;;;7.35;5.13;;;;;;;21.81;100.00;95761.47;5051356;28;24526;-73
2022/06/03 12:42:40;;;;;;;10.93;5.38;;;;;;;21.77;100.00;95763.63;5051441;28;24442;-72
2022/06/03 12:45:27;;;;;;;6.03;4.40;;;;;;;21.70;100.00;95770.53;5050601;28;25044;-74
2022/06/03 12:47:55;;;;;;;9.70;4.45;;;;;;;21.65;100.00;95763.09;5062002;28;24804;-74
2022/06/03 12:50:25;;;;;;;10.00;4.18;;;;;;;21.81;100.00;95764.09;5069813;28;24488;-73
2022/06/03 12:52:55;;;;;;;7.97;5.22;;;;;;;21.56;100.00;95761.47;5069974;28;24449;-73
2022/06/03 12:55:27;;;;;;;5.45;4.78;;;;;;;21.48;100.00;95770.19;5069597;28;24422;-74
2022/06/03 12:57:56;;;;;;;7.90;5.33;;;;;;;21.41;100.00;95771.81;5078108;28;24495;-72
2022/06/03 13:00:32;;;;;;;11.07;5.47;;;;;;;21.38;100.00;95779.22;5082259;28;24990;-72
2022/06/03 13:03:00;;;;;;;8.65;4.65;;;;;;;21.52;100.00;95764.59;5068266;28;24472;-72
2022/06/03 13:05:36;;;;;;;6.68;4.13;;;;;;;21.51;100.00;95776.94;5031099;28;24486;-72
2022/06/03 13:08:06;;;;;;;8.48;4.90;;;;;;;21.57;100.00;95775.47;5029834;28;24876;-72
2022/06/03 13:11:00;;;;;;;9.73;5.40;;;;;;;21.43;100.00;95782.19;5030092;28;24439;-72
2022/06/03 13:13:42;;;;;;;5.23;4.53;;;;;;;21.37;100.00;95793.41;5029980;28;24454;-70